createdAt,value
2023-03-20T00:00:04.842Z,0.00
2023-03-20T00:01:04.928Z,0.00
2023-03-20T00:02:05.028Z,0.00
2023-03-20T00:03:05.068Z,0.00
2023-03-20T00:04:05.207Z,0.00
2023-03-20T00:05:05.282Z,0.00
2023-03-20T00:06:05.302Z,0.00
2023-03-20T00:07:05.403Z,0.00
2023-03-20T00:08:05.455Z,0.00
2023-03-20T00:09:07.465Z,0.00
2023-03-20T00:10:05.619Z,0.00
2023-03-20T00:11:05.744Z,0.00
2023-03-20T00:12:05.809Z,0.00
2023-03-20T00:13:05.854Z,0.00
2023-03-20T00:14:05.968Z,0.00
2023-03-20T00:15:06.029Z,0.00
2023-03-20T00:16:06.206Z,0.00
2023-03-20T00:17:06.184Z,0.00
2023-03-20T00:18:06.272Z,0.00
2023-03-20T00:19:06.355Z,0.00
2023-03-20T00:20:06.447Z,0.00
2023-03-20T00:21:06.529Z,0.00
2023-03-20T00:22:06.668Z,0.00
2023-03-20T00:23:06.704Z,0.00
2023-03-20T00:24:06.827Z,0.00
2023-03-20T00:25:06.916Z,0.00
2023-03-20T00:26:06.997Z,0.00
2023-03-20T00:27:08.735Z,0.00
2023-03-20T00:28:07.163Z,0.00
2023-03-20T00:29:07.253Z,0.00
2023-03-20T00:30:07.318Z,0.00
2023-03-20T00:31:07.420Z,0.00
2023-03-20T00:32:07.500Z,0.00
2023-03-20T00:33:07.612Z,0.00
2023-03-20T00:34:07.654Z,0.00
2023-03-20T00:35:07.700Z,0.00
2023-03-20T00:36:07.823Z,0.00
2023-03-20T00:37:07.847Z,0.00
2023-03-20T00:38:07.918Z,0.00
2023-03-20T00:39:07.996Z,0.00
2023-03-20T00:40:08.088Z,0.00
2023-03-20T00:41:08.172Z,0.00
2023-03-20T00:42:08.293Z,0.00
2023-03-20T00:43:08.307Z,0.00
2023-03-20T00:44:08.380Z,0.00
2023-03-20T00:45:08.462Z,0.00
2023-03-20T00:46:08.547Z,0.00
2023-03-20T00:47:08.753Z,0.00
2023-03-20T00:48:08.710Z,0.00
2023-03-20T00:49:08.791Z,0.00
2023-03-20T00:50:08.871Z,0.00
2023-03-20T00:51:08.948Z,0.00
2023-03-20T00:52:09.069Z,0.00
2023-03-20T00:53:09.129Z,0.00
2023-03-20T00:54:09.214Z,0.00
2023-03-20T00:55:09.295Z,0.00
2023-03-20T00:56:09.366Z,0.00
2023-03-20T00:57:09.460Z,0.00
2023-03-20T00:58:09.515Z,0.00
2023-03-20T00:59:09.599Z,0.00
2023-03-20T01:00:09.677Z,0.00
2023-03-20T01:01:09.751Z,0.00
2023-03-20T01:02:09.922Z,0.00
2023-03-20T01:03:09.902Z,0.00
2023-03-20T01:04:09.976Z,0.00
2023-03-20T01:05:10.055Z,0.00
2023-03-20T01:06:10.153Z,0.00
2023-03-20T01:07:10.255Z,0.00
2023-03-20T01:08:10.327Z,0.00
2023-03-20T01:09:10.370Z,0.00
2023-03-20T01:10:10.463Z,0.00
2023-03-20T01:11:10.544Z,0.00
2023-03-20T01:12:10.661Z,0.00
2023-03-20T01:13:10.707Z,0.00
2023-03-20T01:14:10.782Z,0.00
2023-03-20T01:15:10.855Z,0.00
2023-03-20T01:16:10.993Z,0.00
2023-03-20T01:17:13.535Z,0.00
2023-03-20T01:18:11.141Z,0.00
2023-03-20T01:19:11.219Z,0.00
2023-03-20T01:20:11.289Z,0.00
2023-03-20T01:21:11.366Z,0.00
2023-03-20T01:22:11.490Z,0.00
2023-03-20T01:23:11.531Z,0.00
2023-03-20T01:24:11.624Z,0.00
2023-03-20T01:25:11.673Z,0.00
2023-03-20T01:26:11.745Z,0.00
2023-03-20T01:27:11.859Z,0.00
2023-03-20T01:28:11.911Z,0.00
2023-03-20T01:29:12.036Z,0.00
2023-03-20T01:30:12.090Z,0.00
2023-03-20T01:31:12.179Z,0.00
2023-03-20T01:32:12.321Z,0.00
2023-03-20T01:33:12.414Z,0.00
2023-03-20T01:34:12.443Z,0.00
2023-03-20T01:35:12.519Z,0.00
2023-03-20T01:36:12.622Z,0.00
2023-03-20T01:37:12.815Z,0.00
2023-03-20T01:38:12.749Z,0.00
2023-03-20T01:39:12.844Z,0.00
2023-03-20T01:40:12.922Z,0.00
2023-03-20T01:41:12.995Z,0.00
2023-03-20T01:42:13.099Z,0.00
2023-03-20T01:43:13.135Z,0.00
2023-03-20T01:44:13.207Z,0.00
2023-03-20T01:45:13.283Z,0.00
2023-03-20T01:46:13.361Z,0.00
2023-03-20T01:47:13.427Z,0.00
2023-03-20T01:48:13.493Z,0.00
2023-03-20T01:49:13.574Z,0.00
2023-03-20T01:50:13.656Z,0.00
2023-03-20T01:51:13.721Z,0.00
2023-03-20T01:52:13.806Z,0.00
2023-03-20T01:53:13.853Z,0.00
2023-03-20T01:54:13.924Z,0.00
2023-03-20T01:55:13.980Z,0.00
2023-03-20T01:56:14.059Z,0.00
2023-03-20T01:57:14.147Z,0.00
2023-03-20T01:58:14.241Z,0.00
2023-03-20T01:59:14.300Z,0.00
2023-03-20T02:00:14.375Z,0.00
2023-03-20T02:01:14.488Z,0.00
2023-03-20T02:02:16.232Z,0.00
2023-03-20T02:03:14.636Z,0.00
2023-03-20T02:04:14.700Z,0.00
2023-03-20T02:05:14.784Z,0.00
2023-03-20T02:06:14.874Z,0.00
2023-03-20T02:07:14.956Z,0.00
2023-03-20T02:08:15.057Z,0.00
2023-03-20T02:09:15.101Z,0.00
2023-03-20T02:10:15.172Z,0.00
2023-03-20T02:11:15.254Z,0.00
2023-03-20T02:12:15.325Z,0.00
2023-03-20T02:13:17.233Z,0.00
2023-03-20T02:14:15.492Z,0.00
2023-03-20T02:15:15.579Z,0.00
2023-03-20T02:16:15.751Z,0.00
2023-03-20T02:17:15.755Z,0.00
2023-03-20T02:18:15.858Z,0.00
2023-03-20T02:19:15.957Z,0.00
2023-03-20T02:20:16.028Z,0.00
2023-03-20T02:21:16.105Z,0.00
2023-03-20T02:22:16.223Z,0.00
2023-03-20T02:23:16.295Z,0.00
2023-03-20T02:24:16.407Z,0.00
2023-03-20T02:25:16.448Z,0.00
2023-03-20T02:26:16.548Z,0.00
2023-03-20T02:27:16.631Z,0.00
2023-03-20T02:28:16.696Z,0.00
2023-03-20T02:29:16.814Z,0.00
2023-03-20T02:30:16.867Z,0.00
2023-03-20T02:31:16.997Z,0.00
2023-03-20T02:32:17.040Z,0.00
2023-03-20T02:33:17.113Z,0.00
2023-03-20T02:34:19.225Z,0.00
2023-03-20T02:35:17.259Z,0.00
2023-03-20T02:36:17.358Z,0.00
2023-03-20T02:37:17.399Z,0.00
2023-03-20T02:38:17.472Z,0.00
2023-03-20T02:39:17.540Z,0.00
2023-03-20T02:40:17.634Z,0.00
2023-03-20T02:41:17.698Z,0.00
2023-03-20T02:42:17.781Z,0.00
2023-03-20T02:43:17.888Z,0.00
2023-03-20T02:44:17.938Z,0.00
2023-03-20T02:45:18.042Z,0.00
2023-03-20T02:46:18.193Z,0.00
2023-03-20T02:47:18.171Z,0.00
2023-03-20T02:48:18.253Z,0.00
2023-03-20T02:49:18.326Z,0.00
2023-03-20T02:50:18.423Z,0.00
2023-03-20T02:51:18.462Z,0.00
2023-03-20T02:52:18.547Z,0.00
2023-03-20T02:53:18.611Z,0.00
2023-03-20T02:54:18.684Z,0.00
2023-03-20T02:55:18.783Z,0.00
2023-03-20T02:56:18.862Z,0.00
2023-03-20T02:57:18.937Z,0.00
2023-03-20T02:58:19.040Z,0.00
2023-03-20T02:59:19.111Z,0.00
2023-03-20T03:00:19.238Z,0.00
2023-03-20T03:01:19.291Z,0.00
2023-03-20T03:02:19.387Z,0.00
2023-03-20T03:03:19.454Z,0.00
2023-03-20T03:04:19.530Z,0.00
2023-03-20T03:05:19.636Z,0.00
2023-03-20T03:06:19.715Z,0.00
2023-03-20T03:07:19.804Z,0.00
2023-03-20T03:08:19.879Z,0.00
2023-03-20T03:09:19.965Z,0.00
2023-03-20T03:10:20.050Z,0.00
2023-03-20T03:11:20.121Z,0.00
2023-03-20T03:12:20.214Z,0.00
2023-03-20T03:13:20.292Z,0.00
2023-03-20T03:14:20.358Z,0.00
2023-03-20T03:15:20.476Z,0.00
2023-03-20T03:16:20.554Z,0.00
2023-03-20T03:17:20.582Z,0.00
2023-03-20T03:18:20.665Z,0.00
2023-03-20T03:19:20.751Z,0.00
2023-03-20T03:20:20.805Z,0.00
2023-03-20T03:21:20.886Z,0.00
2023-03-20T03:22:20.965Z,0.00
2023-03-20T03:23:21.035Z,0.00
2023-03-20T03:24:24.075Z,0.00
2023-03-20T03:25:21.242Z,0.00
2023-03-20T03:26:21.285Z,0.00
2023-03-20T03:27:21.376Z,0.00
2023-03-20T03:28:21.457Z,0.00
2023-03-20T03:29:21.551Z,0.00
2023-03-20T03:30:21.656Z,0.00
2023-03-20T03:31:21.955Z,0.00
2023-03-20T03:32:21.787Z,0.00
2023-03-20T03:33:21.870Z,0.00
2023-03-20T03:34:21.941Z,0.00
2023-03-20T03:35:22.086Z,0.00
2023-03-20T03:36:22.113Z,0.00
2023-03-20T03:37:22.195Z,0.00
2023-03-20T03:38:22.264Z,0.00
2023-03-20T03:39:22.351Z,0.00
2023-03-20T03:40:22.440Z,0.00
2023-03-20T03:41:22.503Z,0.00
2023-03-20T03:42:22.584Z,0.00
2023-03-20T03:43:22.666Z,0.00
2023-03-20T03:44:22.756Z,0.00
2023-03-20T03:45:22.836Z,0.00
2023-03-20T03:46:23.049Z,0.00
2023-03-20T03:47:22.990Z,0.00
2023-03-20T03:48:23.067Z,0.00
2023-03-20T03:49:23.147Z,0.00
2023-03-20T03:50:23.234Z,0.00
2023-03-20T03:51:23.307Z,0.00
2023-03-20T03:52:23.409Z,0.00
2023-03-20T03:53:23.468Z,0.00
2023-03-20T03:54:23.549Z,0.00
2023-03-20T03:55:23.681Z,0.00
2023-03-20T03:56:23.830Z,0.00
2023-03-20T03:57:23.791Z,0.00
2023-03-20T03:58:23.859Z,0.00
2023-03-20T03:59:23.982Z,0.00
2023-03-20T04:00:24.068Z,0.00
2023-03-20T04:01:24.143Z,0.00
2023-03-20T04:02:24.215Z,0.00
2023-03-20T04:03:24.317Z,0.00
2023-03-20T04:04:24.432Z,0.00
2023-03-20T04:05:24.499Z,0.00
2023-03-20T04:06:24.520Z,0.00
2023-03-20T04:07:24.591Z,0.00
2023-03-20T04:08:24.678Z,0.00
2023-03-20T04:09:24.765Z,0.00
2023-03-20T04:10:24.860Z,0.00
2023-03-20T04:11:24.947Z,0.00
2023-03-20T04:12:25.021Z,0.00
2023-03-20T04:13:25.101Z,0.00
2023-03-20T04:14:25.180Z,0.00
2023-03-20T04:15:25.283Z,0.00
2023-03-20T04:16:25.445Z,0.00
2023-03-20T04:17:25.432Z,0.00
2023-03-20T04:18:25.499Z,0.00
2023-03-20T04:19:25.578Z,0.00
2023-03-20T04:20:25.666Z,0.00
2023-03-20T04:21:25.735Z,0.00
2023-03-20T04:22:25.810Z,0.00
2023-03-20T04:23:25.881Z,0.00
2023-03-20T04:24:25.953Z,0.00
2023-03-20T04:25:26.098Z,0.00
2023-03-20T04:26:26.120Z,0.00
2023-03-20T04:27:26.229Z,0.00
2023-03-20T04:28:26.313Z,0.00
2023-03-20T04:29:26.406Z,0.00
2023-03-20T04:30:26.489Z,0.00
2023-03-20T04:31:26.608Z,0.00
2023-03-20T04:32:26.636Z,0.00
2023-03-20T04:33:26.722Z,0.00
2023-03-20T04:34:26.799Z,0.00
2023-03-20T04:35:26.955Z,0.00
2023-03-20T04:36:26.948Z,0.00
2023-03-20T04:37:27.058Z,0.00
2023-03-20T04:38:27.154Z,0.00
2023-03-20T04:39:27.226Z,0.00
2023-03-20T04:40:27.314Z,0.00
2023-03-20T04:41:27.376Z,0.00
2023-03-20T04:42:27.452Z,0.00
2023-03-20T04:43:27.523Z,0.00
2023-03-20T04:44:27.595Z,0.00
2023-03-20T04:45:27.691Z,0.00
2023-03-20T04:46:27.801Z,0.00
2023-03-20T04:47:27.817Z,0.00
2023-03-20T04:48:27.891Z,0.00
2023-03-20T04:49:27.987Z,0.00
2023-03-20T04:50:28.090Z,0.00
2023-03-20T04:51:28.143Z,0.00
2023-03-20T04:52:28.216Z,0.00
2023-03-20T04:53:28.331Z,0.00
2023-03-20T04:54:28.374Z,0.00
2023-03-20T04:55:28.502Z,0.00
2023-03-20T04:56:28.532Z,0.00
2023-03-20T04:57:28.636Z,0.00
2023-03-20T04:58:28.702Z,0.00
2023-03-20T04:59:28.793Z,0.00
2023-03-20T05:00:28.895Z,0.00
2023-03-20T05:01:28.985Z,0.00
2023-03-20T05:02:29.042Z,0.00
2023-03-20T05:03:29.148Z,0.00
2023-03-20T05:04:29.305Z,0.00
2023-03-20T05:05:29.336Z,0.00
2023-03-20T05:06:29.391Z,0.00
2023-03-20T05:07:29.455Z,0.00
2023-03-20T05:08:29.542Z,0.00
2023-03-20T05:09:29.618Z,0.00
2023-03-20T05:10:29.723Z,0.00
2023-03-20T05:11:29.777Z,0.00
2023-03-20T05:12:29.864Z,0.00
2023-03-20T05:13:29.953Z,0.00
2023-03-20T05:14:30.038Z,0.00
2023-03-20T05:15:30.153Z,0.00
2023-03-20T05:16:30.274Z,0.00
2023-03-20T05:17:30.285Z,0.00
2023-03-20T05:18:30.346Z,0.00
2023-03-20T05:19:30.428Z,0.00
2023-03-20T05:20:30.525Z,0.00
2023-03-20T05:21:30.609Z,0.00
2023-03-20T05:22:30.684Z,0.00
2023-03-20T05:23:30.788Z,0.00
2023-03-20T05:24:30.827Z,0.00
2023-03-20T05:25:30.931Z,0.00
2023-03-20T05:26:30.972Z,0.00
2023-03-20T05:27:31.048Z,0.00
2023-03-20T05:28:31.134Z,5.62
2023-03-20T05:29:31.207Z,5.62
2023-03-20T05:30:31.297Z,5.62
2023-03-20T05:31:31.351Z,5.62
2023-03-20T05:32:31.429Z,11.25
2023-03-20T05:33:31.505Z,11.25
2023-03-20T05:34:31.586Z,11.25
2023-03-20T05:35:31.674Z,11.25
2023-03-20T05:36:31.731Z,11.25
2023-03-20T05:37:31.828Z,16.88
2023-03-20T05:38:31.906Z,16.88
2023-03-20T05:39:31.997Z,16.88
2023-03-20T05:40:32.110Z,22.50
2023-03-20T05:41:32.181Z,22.50
2023-03-20T05:42:32.279Z,28.12
2023-03-20T05:43:32.341Z,28.12
2023-03-20T05:44:32.426Z,33.75
2023-03-20T05:45:32.539Z,33.75
2023-03-20T05:46:32.641Z,39.38
2023-03-20T05:47:32.680Z,39.38
2023-03-20T05:48:32.757Z,45.00
2023-03-20T05:49:32.864Z,50.62
2023-03-20T05:50:32.948Z,56.25
2023-03-20T05:51:33.015Z,56.25
2023-03-20T05:52:33.095Z,61.88
2023-03-20T05:53:33.187Z,67.50
2023-03-20T05:54:33.263Z,67.50
2023-03-20T05:55:33.524Z,73.12
2023-03-20T05:56:33.454Z,73.12
2023-03-20T05:57:33.512Z,78.75
2023-03-20T05:58:33.585Z,84.38
2023-03-20T05:59:33.656Z,84.38
2023-03-20T06:00:33.751Z,84.38
2023-03-20T06:01:33.828Z,90.00
2023-03-20T06:02:33.943Z,90.00
2023-03-20T06:03:34.024Z,90.00
2023-03-20T06:04:34.045Z,90.00
2023-03-20T06:05:34.370Z,90.00
2023-03-20T06:06:34.226Z,90.00
2023-03-20T06:07:34.338Z,90.00
2023-03-20T06:08:34.384Z,90.00
2023-03-20T06:09:34.465Z,95.62
2023-03-20T06:10:34.544Z,95.62
2023-03-20T06:11:37.361Z,95.62
2023-03-20T06:12:34.706Z,95.62
2023-03-20T06:13:34.787Z,101.25
2023-03-20T06:14:34.843Z,101.25
2023-03-20T06:15:35.395Z,101.25
2023-03-20T06:16:35.017Z,101.25
2023-03-20T06:17:35.086Z,106.88
2023-03-20T06:18:35.162Z,106.88
2023-03-20T06:19:35.252Z,106.88
2023-03-20T06:20:35.340Z,112.50
2023-03-20T06:21:35.394Z,112.50
2023-03-20T06:22:35.460Z,112.50
2023-03-20T06:23:35.560Z,118.12
2023-03-20T06:24:35.646Z,118.12
2023-03-20T06:25:36.040Z,123.75
2023-03-20T06:26:35.824Z,129.38
2023-03-20T06:27:35.914Z,129.38
2023-03-20T06:28:35.971Z,135.00
2023-03-20T06:29:36.060Z,140.62
2023-03-20T06:30:36.162Z,151.88
2023-03-20T06:31:36.271Z,157.50
2023-03-20T06:32:36.364Z,168.75
2023-03-20T06:33:36.375Z,174.38
2023-03-20T06:34:36.427Z,185.62
2023-03-20T06:35:36.826Z,196.88
2023-03-20T06:36:36.614Z,202.50
2023-03-20T06:37:36.668Z,208.12
2023-03-20T06:38:36.726Z,219.38
2023-03-20T06:39:36.848Z,225.00
2023-03-20T06:40:36.929Z,230.62
2023-03-20T06:41:37.003Z,236.25
2023-03-20T06:42:37.070Z,241.88
2023-03-20T06:43:37.167Z,241.88
2023-03-20T06:44:37.227Z,241.88
2023-03-20T06:45:37.752Z,241.88
2023-03-20T06:46:37.458Z,247.50
2023-03-20T06:47:37.464Z,258.75
2023-03-20T06:48:37.527Z,286.88
2023-03-20T06:49:37.611Z,343.12
2023-03-20T06:50:37.722Z,343.12
2023-03-20T06:51:37.798Z,320.62
2023-03-20T06:52:37.893Z,315.00
2023-03-20T06:53:37.981Z,320.62
2023-03-20T06:54:38.044Z,326.25
2023-03-20T06:55:38.533Z,331.88
2023-03-20T06:56:38.219Z,343.12
2023-03-20T06:57:38.327Z,315.00
2023-03-20T06:58:38.394Z,298.12
2023-03-20T06:59:38.478Z,292.50
2023-03-20T07:00:38.596Z,286.88
2023-03-20T07:01:38.723Z,281.25
2023-03-20T07:02:38.720Z,275.62
2023-03-20T07:03:38.789Z,275.62
2023-03-20T07:04:38.932Z,281.25
2023-03-20T07:05:39.248Z,298.12
2023-03-20T07:06:39.060Z,315.00
2023-03-20T07:07:39.150Z,326.25
2023-03-20T07:08:39.221Z,337.50
2023-03-20T07:09:39.296Z,337.50
2023-03-20T07:10:39.400Z,337.50
2023-03-20T07:11:39.545Z,348.75
2023-03-20T07:12:39.542Z,354.38
2023-03-20T07:13:39.610Z,360.00
2023-03-20T07:14:39.690Z,365.62
2023-03-20T07:15:43.848Z,371.25
2023-03-20T07:16:39.937Z,376.88
2023-03-20T07:17:39.966Z,399.38
2023-03-20T07:18:40.028Z,438.75
2023-03-20T07:19:40.133Z,466.88
2023-03-20T07:20:40.222Z,517.50
2023-03-20T07:21:40.300Z,562.50
2023-03-20T07:22:40.359Z,624.38
2023-03-20T07:23:40.469Z,590.62
2023-03-20T07:24:40.552Z,663.75
2023-03-20T07:25:43.243Z,1063.12
2023-03-20T07:26:40.719Z,1822.50
2023-03-20T07:27:40.770Z,1873.12
2023-03-20T07:28:40.843Z,776.25
2023-03-20T07:29:40.916Z,708.75
2023-03-20T07:30:41.034Z,686.25
2023-03-20T07:31:41.102Z,663.75
2023-03-20T07:32:41.178Z,646.88
2023-03-20T07:33:41.195Z,641.25
2023-03-20T07:34:41.281Z,624.38
2023-03-20T07:35:41.516Z,613.12
2023-03-20T07:36:41.444Z,607.50
2023-03-20T07:37:42.318Z,579.38
2023-03-20T07:38:41.601Z,556.88
2023-03-20T07:39:41.651Z,540.00
2023-03-20T07:40:41.745Z,540.00
2023-03-20T07:41:41.802Z,534.38
2023-03-20T07:42:41.880Z,506.25
2023-03-20T07:43:44.544Z,466.88
2023-03-20T07:44:42.017Z,427.50
2023-03-20T07:45:42.119Z,393.75
2023-03-20T07:46:42.146Z,365.62
2023-03-20T07:47:42.250Z,343.12
2023-03-20T07:48:42.284Z,320.62
2023-03-20T07:49:42.349Z,309.38
2023-03-20T07:50:42.504Z,298.12
2023-03-20T07:51:42.518Z,292.50
2023-03-20T07:52:42.599Z,286.88
2023-03-20T07:53:42.659Z,286.88
2023-03-20T07:54:42.736Z,281.25
2023-03-20T07:55:42.827Z,281.25
2023-03-20T07:56:42.880Z,281.25
2023-03-20T07:57:42.939Z,281.25
2023-03-20T07:58:43.029Z,281.25
2023-03-20T07:59:43.086Z,281.25
2023-03-20T08:00:43.214Z,281.25
2023-03-20T08:01:43.256Z,281.25
2023-03-20T08:02:43.418Z,281.25
2023-03-20T08:03:43.527Z,275.62
2023-03-20T08:04:43.505Z,270.00
2023-03-20T08:05:45.809Z,270.00
2023-03-20T08:06:43.655Z,270.00
2023-03-20T08:07:43.771Z,270.00
2023-03-20T08:08:43.799Z,275.62
2023-03-20T08:09:43.859Z,275.62
2023-03-20T08:10:43.975Z,275.62
2023-03-20T08:11:44.031Z,275.62
2023-03-20T08:12:44.101Z,281.25
2023-03-20T08:13:44.186Z,286.88
2023-03-20T08:14:44.274Z,292.50
2023-03-20T08:15:44.343Z,298.12
2023-03-20T08:16:44.542Z,303.75
2023-03-20T08:17:44.480Z,309.38
2023-03-20T08:18:44.567Z,309.38
2023-03-20T08:19:44.617Z,315.00
2023-03-20T08:20:44.718Z,315.00
2023-03-20T08:21:44.766Z,315.00
2023-03-20T08:22:44.842Z,315.00
2023-03-20T08:23:44.937Z,315.00
2023-03-20T08:24:45.046Z,315.00
2023-03-20T08:25:45.118Z,315.00
2023-03-20T08:26:45.191Z,315.00
2023-03-20T08:27:45.251Z,315.00
2023-03-20T08:28:47.825Z,320.62
2023-03-20T08:29:45.401Z,320.62
2023-03-20T08:30:45.567Z,315.00
2023-03-20T08:31:45.570Z,315.00
2023-03-20T08:32:45.708Z,309.38
2023-03-20T08:33:45.724Z,309.38
2023-03-20T08:34:45.806Z,315.00
2023-03-20T08:35:46.207Z,315.00
2023-03-20T08:36:45.945Z,315.00
2023-03-20T08:37:46.013Z,320.62
2023-03-20T08:38:46.121Z,326.25
2023-03-20T08:39:46.161Z,331.88
2023-03-20T08:40:46.247Z,331.88
2023-03-20T08:41:46.320Z,337.50
2023-03-20T08:42:46.371Z,337.50
2023-03-20T08:43:46.465Z,337.50
2023-03-20T08:44:46.523Z,337.50
2023-03-20T08:45:47.055Z,343.12
2023-03-20T08:46:46.689Z,343.12
2023-03-20T08:47:46.763Z,348.75
2023-03-20T08:48:46.845Z,354.38
2023-03-20T08:49:46.928Z,360.00
2023-03-20T08:50:47.007Z,371.25
2023-03-20T08:51:47.099Z,376.88
2023-03-20T08:52:47.283Z,382.50
2023-03-20T08:53:47.222Z,382.50
2023-03-20T08:54:47.286Z,382.50
2023-03-20T08:55:47.368Z,376.88
2023-03-20T08:56:47.448Z,371.25
2023-03-20T08:57:47.503Z,371.25
2023-03-20T08:58:47.551Z,371.25
2023-03-20T08:59:47.657Z,371.25
2023-03-20T09:00:47.708Z,376.88
2023-03-20T09:01:50.181Z,382.50
2023-03-20T09:02:47.879Z,388.12
2023-03-20T09:03:47.940Z,393.75
2023-03-20T09:04:48.013Z,399.38
2023-03-20T09:05:48.121Z,405.00
2023-03-20T09:06:48.169Z,410.62
2023-03-20T09:07:48.216Z,416.25
2023-03-20T09:08:48.272Z,421.88
2023-03-20T09:09:48.375Z,421.88
2023-03-20T09:10:49.415Z,427.50
2023-03-20T09:11:48.568Z,427.50
2023-03-20T09:12:48.612Z,438.75
2023-03-20T09:13:48.707Z,450.00
2023-03-20T09:14:48.761Z,466.88
2023-03-20T09:15:48.926Z,489.38
2023-03-20T09:16:48.953Z,517.50
2023-03-20T09:17:49.009Z,551.25
2023-03-20T09:18:49.074Z,607.50
2023-03-20T09:19:49.170Z,658.12
2023-03-20T09:20:49.273Z,720.00
2023-03-20T09:21:49.350Z,798.75
2023-03-20T09:22:49.400Z,877.50
2023-03-20T09:23:49.465Z,1158.75
2023-03-20T09:24:49.558Z,1170.00
2023-03-20T09:25:49.632Z,1186.88
2023-03-20T09:26:49.708Z,1006.88
2023-03-20T09:27:49.761Z,1018.12
2023-03-20T09:28:49.829Z,1203.75
2023-03-20T09:29:49.914Z,888.75
2023-03-20T09:30:50.055Z,894.38
2023-03-20T09:31:50.072Z,900.00
2023-03-20T09:32:50.141Z,849.38
2023-03-20T09:33:50.218Z,821.25
2023-03-20T09:34:50.299Z,759.38
2023-03-20T09:35:50.383Z,697.50
2023-03-20T09:36:50.461Z,680.62
2023-03-20T09:37:50.540Z,686.25
2023-03-20T09:38:50.623Z,658.12
2023-03-20T09:39:50.716Z,658.12
2023-03-20T09:40:50.772Z,641.25
2023-03-20T09:41:56.997Z,613.12
2023-03-20T09:42:50.940Z,573.75
2023-03-20T09:43:51.046Z,545.62
2023-03-20T09:44:51.073Z,540.00
2023-03-20T09:45:51.153Z,540.00
2023-03-20T09:46:51.309Z,540.00
2023-03-20T09:47:51.288Z,534.38
2023-03-20T09:48:54.233Z,523.12
2023-03-20T09:49:51.413Z,523.12
2023-03-20T09:50:51.467Z,523.12
2023-03-20T09:51:51.564Z,528.75
2023-03-20T09:52:51.645Z,534.38
2023-03-20T09:53:52.452Z,540.00
2023-03-20T09:54:54.614Z,540.00
2023-03-20T09:55:51.924Z,540.00
2023-03-20T09:56:51.958Z,534.38
2023-03-20T09:57:52.033Z,528.75
2023-03-20T09:58:52.115Z,517.50
2023-03-20T09:59:52.153Z,506.25
2023-03-20T10:00:52.215Z,500.62
2023-03-20T10:01:52.427Z,489.38
2023-03-20T10:02:52.375Z,489.38
2023-03-20T10:03:52.442Z,495.00
2023-03-20T10:04:52.578Z,500.62
2023-03-20T10:05:52.590Z,506.25
2023-03-20T10:06:52.654Z,506.25
2023-03-20T10:07:52.726Z,511.88
2023-03-20T10:08:52.792Z,506.25
2023-03-20T10:09:52.884Z,506.25
2023-03-20T10:10:52.970Z,500.62
2023-03-20T10:11:53.066Z,500.62
2023-03-20T10:12:53.128Z,500.62
2023-03-20T10:13:53.221Z,500.62
2023-03-20T10:14:53.290Z,500.62
2023-03-20T10:15:53.410Z,500.62
2023-03-20T10:16:53.460Z,500.62
2023-03-20T10:17:53.553Z,500.62
2023-03-20T10:18:53.614Z,506.25
2023-03-20T10:19:53.700Z,506.25
2023-03-20T10:20:53.760Z,511.88
2023-03-20T10:21:53.876Z,511.88
2023-03-20T10:22:53.948Z,511.88
2023-03-20T10:23:54.022Z,511.88
2023-03-20T10:24:54.118Z,511.88
2023-03-20T10:25:54.192Z,511.88
2023-03-20T10:26:54.299Z,517.50
2023-03-20T10:27:54.389Z,511.88
2023-03-20T10:28:54.450Z,506.25
2023-03-20T10:29:54.538Z,500.62
2023-03-20T10:30:54.602Z,500.62
2023-03-20T10:31:54.726Z,511.88
2023-03-20T10:32:54.830Z,517.50
2023-03-20T10:33:54.863Z,534.38
2023-03-20T10:34:54.924Z,551.25
2023-03-20T10:35:55.084Z,562.50
2023-03-20T10:36:55.098Z,568.12
2023-03-20T10:37:55.151Z,568.12
2023-03-20T10:38:55.227Z,573.75
2023-03-20T10:39:55.309Z,568.12
2023-03-20T10:40:55.381Z,562.50
2023-03-20T10:41:55.492Z,585.00
2023-03-20T10:42:55.564Z,596.25
2023-03-20T10:43:55.673Z,607.50
2023-03-20T10:44:55.737Z,607.50
2023-03-20T10:45:55.820Z,596.25
2023-03-20T10:46:55.947Z,585.00
2023-03-20T10:47:56.089Z,585.00
2023-03-20T10:48:56.047Z,579.38
2023-03-20T10:49:56.123Z,579.38
2023-03-20T10:50:56.210Z,585.00
2023-03-20T10:51:56.331Z,573.75
2023-03-20T10:52:56.391Z,562.50
2023-03-20T10:53:56.454Z,551.25
2023-03-20T10:54:56.517Z,545.62
2023-03-20T10:55:56.596Z,528.75
2023-03-20T10:56:56.693Z,511.88
2023-03-20T10:57:56.750Z,500.62
2023-03-20T10:58:56.828Z,483.75
2023-03-20T10:59:56.924Z,461.25
2023-03-20T11:00:57.019Z,444.38
2023-03-20T11:01:57.121Z,427.50
2023-03-20T11:02:57.161Z,410.62
2023-03-20T11:03:57.267Z,405.00
2023-03-20T11:04:57.349Z,393.75
2023-03-20T11:06:08.834Z,388.12
2023-03-20T11:06:57.551Z,376.88
2023-03-20T11:07:57.586Z,365.62
2023-03-20T11:08:57.661Z,360.00
2023-03-20T11:09:57.760Z,360.00
2023-03-20T11:10:58.395Z,376.88
2023-03-20T11:11:57.937Z,388.12
2023-03-20T11:12:58.007Z,405.00
2023-03-20T11:13:58.090Z,421.88
2023-03-20T11:14:58.163Z,427.50
2023-03-20T11:15:58.263Z,427.50
2023-03-20T11:16:58.382Z,433.12
2023-03-20T11:17:58.406Z,427.50
2023-03-20T11:18:58.478Z,421.88
2023-03-20T11:19:58.584Z,416.25
2023-03-20T11:20:58.646Z,416.25
2023-03-20T11:21:58.768Z,416.25
2023-03-20T11:22:58.780Z,416.25
2023-03-20T11:23:58.892Z,410.62
2023-03-20T11:24:58.965Z,399.38
2023-03-20T11:25:59.067Z,382.50
2023-03-20T11:26:59.113Z,360.00
2023-03-20T11:27:59.179Z,348.75
2023-03-20T11:28:59.544Z,337.50
2023-03-20T11:29:59.330Z,337.50
2023-03-20T11:31:05.591Z,331.88
2023-03-20T11:31:59.550Z,320.62
2023-03-20T11:32:59.608Z,309.38
2023-03-20T11:33:59.652Z,292.50
2023-03-20T11:34:59.737Z,275.62
2023-03-20T11:35:59.884Z,258.75
2023-03-20T11:37:09.803Z,253.12
2023-03-20T11:38:00.001Z,253.12
2023-03-20T11:39:00.119Z,258.75
2023-03-20T11:40:00.209Z,270.00
2023-03-20T11:41:00.262Z,275.62
2023-03-20T11:42:00.366Z,286.88
2023-03-20T11:43:00.431Z,292.50
2023-03-20T11:44:00.496Z,303.75
2023-03-20T11:45:00.593Z,320.62
2023-03-20T11:46:00.712Z,331.88
2023-03-20T11:47:00.898Z,337.50
2023-03-20T11:48:02.732Z,343.12
2023-03-20T11:49:00.906Z,337.50
2023-03-20T11:50:01.018Z,337.50
2023-03-20T11:51:01.088Z,337.50
2023-03-20T11:52:01.156Z,348.75
2023-03-20T11:53:01.215Z,371.25
2023-03-20T11:54:01.303Z,399.38
2023-03-20T11:55:01.397Z,427.50
2023-03-20T11:56:01.460Z,461.25
2023-03-20T11:57:01.576Z,495.00
2023-03-20T11:58:01.624Z,523.12
2023-03-20T11:59:01.714Z,540.00
2023-03-20T12:00:01.803Z,545.62
2023-03-20T12:01:01.884Z,551.25
2023-03-20T12:02:02.027Z,545.62
2023-03-20T12:03:02.047Z,545.62
2023-03-20T12:04:02.237Z,540.00
2023-03-20T12:05:02.225Z,528.75
2023-03-20T12:06:02.312Z,523.12
2023-03-20T12:07:02.417Z,511.88
2023-03-20T12:08:02.468Z,500.62
2023-03-20T12:09:02.555Z,495.00
2023-03-20T12:10:02.635Z,483.75
2023-03-20T12:11:02.746Z,478.12
2023-03-20T12:12:02.843Z,478.12
2023-03-20T12:13:02.915Z,478.12
2023-03-20T12:14:02.985Z,489.38
2023-03-20T12:15:03.092Z,500.62
2023-03-20T12:16:03.196Z,500.62
2023-03-20T12:17:03.264Z,495.00
2023-03-20T12:18:03.309Z,489.38
2023-03-20T12:19:03.398Z,472.50
2023-03-20T12:20:03.460Z,466.88
2023-03-20T12:21:03.565Z,472.50
2023-03-20T12:22:03.657Z,472.50
2023-03-20T12:23:03.742Z,466.88
2023-03-20T12:24:03.823Z,461.25
2023-03-20T12:25:03.925Z,461.25
2023-03-20T12:26:04.006Z,466.88
2023-03-20T12:27:04.118Z,472.50
2023-03-20T12:28:04.152Z,472.50
2023-03-20T12:29:04.254Z,461.25
2023-03-20T12:30:04.352Z,466.88
2023-03-20T12:31:04.504Z,478.12
2023-03-20T12:32:04.523Z,495.00
2023-03-20T12:33:04.707Z,506.25
2023-03-20T12:34:04.775Z,523.12
2023-03-20T12:35:04.772Z,523.12
2023-03-20T12:36:04.888Z,528.75
2023-03-20T12:37:04.965Z,534.38
2023-03-20T12:38:05.049Z,545.62
2023-03-20T12:39:05.140Z,551.25
2023-03-20T12:40:05.202Z,540.00
2023-03-20T12:41:05.306Z,534.38
2023-03-20T12:42:05.420Z,523.12
2023-03-20T12:43:05.488Z,517.50
2023-03-20T12:44:05.584Z,528.75
2023-03-20T12:45:05.664Z,523.12
2023-03-20T12:46:05.795Z,517.50
2023-03-20T12:47:05.856Z,506.25
2023-03-20T12:48:05.896Z,506.25
2023-03-20T12:49:05.977Z,500.62
2023-03-20T12:50:06.056Z,495.00
2023-03-20T12:51:06.143Z,495.00